Time;durP1;ratioP1;P1;durP2;ratioP2;P2;SDS_P1;SDS_P2;PMS_P1;PMS_P2;Temp;Humidity;BMP_temperature;BMP_pressure;BME280_temperature;BME280_humidity;BME280_pressure;Samples;Min_cycle;Max_cycle;Signal;HPM_P1;HPM_P2
2022/08/19 00:01:49;;;;;;;3.25;1.55;;;15.70;89.00;;;;;;5065264;28;20055;-69
2022/08/19 00:04:18;;;;;;;8.35;1.48;;;15.70;88.80;;;;;;5066443;28;20020;-69
2022/08/19 00:06:47;;;;;;;5.32;1.65;;;15.60;88.70;;;;;;5063198;28;20087;-68
2022/08/19 00:09:16;;;;;;;7.00;2.40;;;15.60;88.60;;;;;;5068630;28;20466;-70
2022/08/19 00:11:43;;;;;;;5.30;1.63;;;15.60;88.50;;;;;;5066319;28;20044;-70
2022/08/19 00:14:13;;;;;;;5.15;1.38;;;15.60;88.40;;;;;;5068734;28;20009;-71
2022/08/19 00:17:17;;;;;;;4.15;1.77;;;15.60;88.30;;;;;;5069597;28;20041;-69
2022/08/19 00:19:44;;;;;;;9.13;1.45;;;15.70;88.30;;;;;;5084374;28;20519;-68
2022/08/19 00:22:10;;;;;;;7.68;3.70;;;15.60;88.10;;;;;;5068287;28;20045;-67
2022/08/19 00:24:38;;;;;;;9.82;2.28;;;15.60;88.00;;;;;;5064912;28;20016;-71
2022/08/19 00:27:05;;;;;;;2.33;0.82;;;15.70;88.20;;;;;;5064905;28;20021;-72
2022/08/19 00:29:32;;;;;;;9.05;1.90;;;15.60;88.10;;;;;;5069745;28;20114;-71
2022/08/19 00:31:59;;;;;;;6.03;1.25;;;15.70;88.20;;;;;;5065120;28;20029;-67
2022/08/19 00:34:29;;;;;;;7.05;1.92;;;15.60;88.10;;;;;;5067386;28;20032;-68
2022/08/19 00:36:57;;;;;;;4.00;1.30;;;15.60;88.10;;;;;;5064399;28;20436;-72
2022/08/19 00:39:24;;;;;;;6.07;2.17;;;15.60;88.00;;;;;;5070969;28;20028;-69
2022/08/19 00:41:51;;;;;;;3.88;1.95;;;15.60;88.00;;;;;;5065775;28;20020;-70
2022/08/19 00:44:28;;;;;;;10.63;1.80;;;15.60;88.10;;;;;;5068005;28;20025;-69
2022/08/19 00:46:58;;;;;;;3.05;1.63;;;15.60;88.10;;;;;;5063884;28;20054;-68
2022/08/19 00:49:40;;;;;;;6.68;2.50;;;15.60;88.20;;;;;;5065302;28;20112;-70
2022/08/19 00:52:16;;;;;;;4.90;1.60;;;15.60;88.30;;;;;;5070276;28;20261;-68
2022/08/19 00:54:44;;;;;;;10.48;1.77;;;15.60;88.70;;;;;;5065289;28;20487;-70
2022/08/19 00:57:16;;;;;;;6.95;1.40;;;15.60;89.00;;;;;;5067752;28;20137;-70
2022/08/19 00:59:45;;;;;;;10.18;2.05;;;15.70;89.30;;;;;;5067316;28;20020;-71
2022/08/19 01:02:12;;;;;;;9.18;2.53;;;15.70;89.60;;;;;;5064443;28;20020;-69
2022/08/19 01:04:39;;;;;;;17.67;2.97;;;15.70;89.60;;;;;;5068962;28;20054;-71
2022/08/19 01:07:06;;;;;;;9.30;1.35;;;15.70;89.70;;;;;;5066247;28;20026;-71
2022/08/19 01:09:33;;;;;;;6.38;2.10;;;15.70;90.20;;;;;;5067857;28;20031;-67
2022/08/19 01:12:01;;;;;;;7.15;2.30;;;15.70;90.00;;;;;;5065570;28;20016;-70
2022/08/19 01:14:27;;;;;;;5.80;2.08;;;15.70;90.10;;;;;;5066373;28;20025;-72
2022/08/19 01:16:56;;;;;;;9.45;1.70;;;15.70;89.90;;;;;;5065967;28;20462;-71
2022/08/19 01:19:37;;;;;;;9.43;2.45;;;15.70;89.50;;;;;;5063023;28;20029;-69
2022/08/19 01:22:16;;;;;;;9.93;3.05;;;15.70;88.90;;;;;;5064433;28;20076;-68
2022/08/19 01:24:43;;;;;;;7.68;1.70;;;15.60;88.20;;;;;;5062110;28;20486;-70
2022/08/19 01:27:10;;;;;;;7.72;2.85;;;15.60;87.70;;;;;;5065130;28;20472;-69
2022/08/19 01:29:40;;;;;;;8.10;1.33;;;15.60;86.90;;;;;;5068990;28;20470;-72
2022/08/19 01:32:11;;;;;;;8.25;2.10;;;15.60;86.60;;;;;;5066500;28;20394;-72
2022/08/19 01:34:38;;;;;;;4.45;1.20;;;15.60;86.30;;;;;;5065558;28;20029;-71
2022/08/19 01:37:13;;;;;;;4.80;1.25;;;15.60;86.10;;;;;;5059843;28;20215;-70
2022/08/19 01:39:41;;;;;;;10.40;1.85;;;15.60;85.90;;;;;;5068624;28;20020;-71
2022/08/19 01:42:10;;;;;;;5.35;1.83;;;15.60;85.70;;;;;;5064331;28;20116;-68
2022/08/19 01:44:40;;;;;;;2.42;1.35;;;15.60;85.70;;;;;;5063766;28;20032;-67
2022/08/19 01:47:09;;;;;;;1.98;1.17;;;15.60;85.60;;;;;;5064687;28;20017;-69
2022/08/19 01:49:37;;;;;;;9.10;3.05;;;15.60;85.30;;;;;;5066628;28;20071;-68
2022/08/19 01:52:04;;;;;;;6.22;2.17;;;15.60;85.30;;;;;;5066394;28;20016;-70
2022/08/19 01:54:31;;;;;;;6.78;1.65;;;15.60;85.20;;;;;;5064340;28;20457;-71
2022/08/19 01:57:15;;;;;;;4.68;1.80;;;15.60;85.00;;;;;;5064511;28;20027;-68
2022/08/19 01:59:43;;;;;;;3.65;1.48;;;15.60;84.90;;;;;;5064787;28;20032;-70
2022/08/19 02:02:10;;;;;;;11.45;2.47;;;15.60;84.70;;;;;;5065875;28;20025;-70
2022/08/19 02:04:40;;;;;;;6.13;1.40;;;15.60;84.60;;;;;;5062796;28;20104;-69
2022/08/19 02:07:07;;;;;;;3.75;0.90;;;15.60;84.40;;;;;;5066400;28;20064;-70
2022/08/19 02:09:34;;;;;;;6.38;1.30;;;15.60;84.30;;;;;;5066446;28;20403;-71
2022/08/19 02:12:00;;;;;;;4.90;1.08;;;15.50;84.10;;;;;;5065639;28;20459;-70
2022/08/19 02:14:27;;;;;;;9.00;1.45;;;15.60;83.90;;;;;;5064823;28;20032;-68
2022/08/19 02:16:53;;;;;;;6.88;1.90;;;15.50;83.70;;;;;;5064349;28;20501;-67
2022/08/19 02:19:20;;;;;;;8.43;1.45;;;15.50;83.60;;;;;;5067927;28;20086;-68
2022/08/19 02:21:46;;;;;;;4.25;0.98;;;15.50;83.60;;;;;;5065285;28;20040;-70
2022/08/19 02:24:13;;;;;;;3.15;1.38;;;15.50;83.70;;;;;;5068560;28;20024;-71
2022/08/19 02:26:39;;;;;;;8.75;2.25;;;15.50;83.60;;;;;;5064360;28;20024;-70
2022/08/19 02:29:06;;;;;;;14.15;1.73;;;15.50;83.60;;;;;;5062642;28;20016;-71
2022/08/19 02:31:33;;;;;;;10.77;3.10;;;15.50;83.70;;;;;;5065166;28;20033;-67
2022/08/19 02:34:00;;;;;;;4.50;1.40;;;15.50;83.80;;;;;;5071643;28;20028;-70
2022/08/19 02:36:27;;;;;;;13.35;1.83;;;15.50;83.60;;;;;;5070670;28;20329;-70
2022/08/19 02:38:54;;;;;;;4.80;1.67;;;15.50;83.40;;;;;;5066469;28;20102;-68
2022/08/19 02:41:23;;;;;;;3.08;1.02;;;15.50;83.40;;;;;;5065704;28;20097;-71
2022/08/19 02:43:50;;;;;;;3.80;1.17;;;15.50;83.40;;;;;;5066061;28;20028;-68
2022/08/19 02:46:26;;;;;;;5.97;1.73;;;15.50;83.60;;;;;;5066575;28;20487;-71
2022/08/19 02:48:56;;;;;;;5.63;1.75;;;15.50;83.70;;;;;;5072167;28;20035;-67
2022/08/19 02:51:29;;;;;;;2.85;0.80;;;15.50;83.80;;;;;;5070603;28;20037;-70
2022/08/19 02:53:56;;;;;;;4.03;1.42;;;15.40;83.70;;;;;;5064761;28;20416;-71
2022/08/19 02:56:24;;;;;;;5.57;1.20;;;15.40;83.80;;;;;;5067204;28;20028;-67
2022/08/19 02:58:51;;;;;;;10.88;2.53;;;15.40;83.90;;;;;;5067941;28;20111;-71
2022/08/19 03:01:26;;;;;;;3.75;1.10;;;15.40;84.30;;;;;;5069633;28;20035;-72
2022/08/19 03:03:54;;;;;;;1.83;1.33;;;15.40;84.40;;;;;;5064307;28;20024;-67
2022/08/19 03:06:21;;;;;;;7.47;1.55;;;15.40;84.50;;;;;;5065983;28;20043;-72
2022/08/19 03:08:49;;;;;;;4.78;1.90;;;15.40;84.60;;;;;;5066279;28;20015;-67
2022/08/19 03:11:16;;;;;;;6.47;1.25;;;15.40;84.50;;;;;;5066386;28;20028;-68
2022/08/19 03:13:43;;;;;;;9.85;1.40;;;15.40;84.50;;;;;;5067284;28;20021;-71
2022/08/19 03:16:11;;;;;;;5.78;2.10;;;15.30;84.40;;;;;;5067890;28;20025;-68
2022/08/19 03:18:38;;;;;;;4.38;1.67;;;15.40;84.60;;;;;;5072219;28;20503;-71
2022/08/19 03:21:05;;;;;;;2.78;1.02;;;15.40;84.70;;;;;;5066537;28;20090;-69
2022/08/19 03:23:33;;;;;;;7.85;1.63;;;15.30;84.70;;;;;;5068265;28;20013;-67
2022/08/19 03:26:04;;;;;;;5.43;1.17;;;15.30;84.60;;;;;;5066790;28;20048;-70
2022/08/19 03:28:31;;;;;;;9.18;1.88;;;15.30;84.50;;;;;;5067726;28;20031;-72
2022/08/19 03:31:03;;;;;;;6.22;1.23;;;15.30;84.40;;;;;;5065085;28;20082;-71
2022/08/19 03:33:32;;;;;;;6.70;1.67;;;15.30;84.70;;;;;;5068452;28;20025;-71
2022/08/19 03:36:09;;;;;;;4.82;1.83;;;15.30;85.00;;;;;;5067155;28;20062;-71
2022/08/19 03:38:38;;;;;;;6.45;1.30;;;15.30;85.60;;;;;;5068848;28;20082;-70
2022/08/19 03:41:09;;;;;;;7.93;1.27;;;15.40;86.10;;;;;;5064598;28;20029;-71
2022/08/19 03:43:37;;;;;;;3.42;0.90;;;15.40;86.20;;;;;;5062832;28;20086;-68
2022/08/19 03:46:14;;;;;;;13.15;1.40;;;15.40;85.70;;;;;;5066289;28;20034;-69
2022/08/19 03:48:43;;;;;;;10.23;2.65;;;15.40;85.20;;;;;;5065544;28;20016;-72
2022/08/19 03:51:22;;;;;;;8.93;1.83;;;15.30;85.30;;;;;;5064417;28;20036;-73
2022/08/19 03:53:49;;;;;;;39.97;4.70;;;15.40;85.50;;;;;;5064048;28;20032;-72
2022/08/19 03:56:16;;;;;;;9.02;1.60;;;15.40;85.60;;;;;;5068299;28;20379;-71
2022/08/19 03:58:44;;;;;;;9.43;1.30;;;15.40;86.00;;;;;;5065400;28;20459;-68
2022/08/19 04:01:13;;;;;;;7.72;1.25;;;15.40;86.00;;;;;;5068401;28;20020;-69
2022/08/19 04:03:41;;;;;;;20.25;1.27;;;15.30;86.10;;;;;;5066075;28;20482;-72
2022/08/19 04:06:13;;;;;;;13.50;7.18;;;15.40;86.30;;;;;;5065978;28;20066;-68
2022/08/19 04:08:41;;;;;;;20.42;12.57;;;15.40;86.70;;;;;;5067213;28;20055;-72
2022/08/19 04:11:14;;;;;;;15.55;8.52;;;15.40;86.70;;;;;;5068010;28;20028;-69
2022/08/19 04:13:42;;;;;;;7.88;4.25;;;15.40;86.70;;;;;;5066705;28;20024;-70
2022/08/19 04:16:09;;;;;;;7.50;2.90;;;15.40;86.60;;;;;;5067967;28;20065;-67
2022/08/19 04:18:38;;;;;;;4.40;1.58;;;15.40;86.10;;;;;;5068908;28;20024;-71
2022/08/19 04:21:05;;;;;;;6.18;2.03;;;15.40;85.70;;;;;;5066694;28;20044;-70
2022/08/19 04:23:32;;;;;;;5.53;2.53;;;15.30;85.40;;;;;;5066975;28;20070;-72
2022/08/19 04:25:59;;;;;;;4.07;1.02;;;15.40;85.20;;;;;;5067017;28;20017;-67
2022/08/19 04:28:26;;;;;;;2.50;0.80;;;15.40;84.80;;;;;;5068779;28;20081;-68
2022/08/19 04:30:54;;;;;;;7.20;0.90;;;15.30;84.60;;;;;;5065334;28;20044;-71
2022/08/19 04:33:23;;;;;;;5.72;0.82;;;15.30;84.40;;;;;;5068211;28;20040;-71
2022/08/19 04:35:52;;;;;;;6.18;1.15;;;15.30;84.20;;;;;;5066937;28;20479;-71
2022/08/19 04:38:22;;;;;;;19.98;12.20;;;15.30;84.00;;;;;;5064065;28;20017;-73
2022/08/19 04:43:37;;;;;;;21.90;13.93;;;15.30;83.60;;;;;;5064994;28;20027;-79
2022/08/19 04:46:12;;;;;;;13.18;8.55;;;15.30;84.10;;;;;;5067238;28;20108;-72
2022/08/19 04:48:39;;;;;;;7.73;4.17;;;15.30;84.20;;;;;;5064782;28;20063;-74
2022/08/19 04:51:08;;;;;;;10.32;3.30;;;15.30;84.20;;;;;;5064077;28;20116;-70
2022/08/19 04:53:37;;;;;;;6.93;2.95;;;15.30;84.30;;;;;;5069830;28;20070;-76
2022/08/19 04:56:16;;;;;;;13.40;5.10;;;15.30;84.40;;;;;;5065040;28;20044;-72
2022/08/19 04:58:44;;;;;;;18.50;11.98;;;15.30;84.60;;;;;;5065028;28;20013;-78
2022/08/19 05:01:19;;;;;;;11.52;7.28;;;15.30;84.60;;;;;;5059690;28;20125;-78
2022/08/19 05:03:47;;;;;;;11.23;3.55;;;15.30;84.50;;;;;;5065911;28;20033;-71
2022/08/19 05:06:15;;;;;;;8.45;3.28;;;15.30;84.30;;;;;;5064222;28;20028;-74
2022/08/19 05:08:43;;;;;;;10.55;3.08;;;15.30;84.20;;;;;;5066672;28;20020;-73
2022/08/19 05:11:11;;;;;;;6.53;2.25;;;15.20;84.20;;;;;;5065870;28;20051;-69
2022/08/19 05:13:38;;;;;;;6.40;1.17;;;15.30;84.00;;;;;;5063410;28;20394;-71
2022/08/19 05:16:05;;;;;;;5.82;1.67;;;15.20;83.80;;;;;;5064340;28;20431;-72
2022/08/19 05:24:08;;;;;;;11.07;2.17;;;15.20;83.40;;;;;;5062462;28;20284;-70
2022/08/19 05:26:47;;;;;;;7.30;1.92;;;15.20;83.20;;;;;;5062827;28;20529;-72
2022/08/19 05:29:21;;;;;;;10.63;2.67;;;15.20;82.90;;;;;;5066739;28;20390;-72
2022/08/19 05:31:51;;;;;;;4.35;1.30;;;15.20;82.70;;;;;;5062983;28;20070;-71
2022/08/19 05:34:24;;;;;;;7.50;1.67;;;15.20;82.50;;;;;;5066317;28;20021;-71
2022/08/19 05:36:56;;;;;;;4.78;1.80;;;15.20;82.40;;;;;;5063754;28;20021;-71
2022/08/19 05:39:26;;;;;;;10.85;1.50;;;15.20;82.30;;;;;;5070683;28;20025;-71
2022/08/19 05:41:59;;;;;;;6.82;1.50;;;15.20;82.30;;;;;;5064632;28;20028;-72
2022/08/19 05:44:31;;;;;;;5.43;1.50;;;15.20;82.30;;;;;;5066619;28;20111;-71
2022/08/19 05:46:59;;;;;;;3.17;1.30;;;15.20;82.40;;;;;;5062520;28;20589;-70
2022/08/19 05:49:27;;;;;;;5.07;1.10;;;15.20;82.50;;;;;;5065538;28;20024;-70
2022/08/19 05:51:55;;;;;;;5.47;1.55;;;15.20;82.60;;;;;;5066100;28;20029;-71
2022/08/19 05:54:23;;;;;;;5.93;2.40;;;15.10;82.40;;;;;;5063671;28;20471;-71
2022/08/19 05:56:51;;;;;;;17.02;3.22;;;15.20;82.40;;;;;;5059920;28;20029;-70
2022/08/19 05:59:19;;;;;;;1.60;1.00;;;15.10;82.30;;;;;;5067097;28;20027;-71
2022/08/19 06:01:50;;;;;;;3.80;1.05;;;15.20;82.40;;;;;;5064596;28;20033;-72
2022/08/19 06:04:19;;;;;;;6.20;1.35;;;15.10;82.40;;;;;;5063100;28;20013;-70
2022/08/19 06:06:51;;;;;;;4.03;1.17;;;15.20;82.50;;;;;;5063816;28;20082;-71
2022/08/19 06:09:18;;;;;;;8.43;1.50;;;15.10;82.60;;;;;;5071164;28;20031;-71
2022/08/19 06:11:48;;;;;;;5.40;2.67;;;15.10;82.60;;;;;;5062619;28;20041;-72
2022/08/19 06:14:18;;;;;;;6.05;2.35;;;15.20;82.70;;;;;;5061897;28;20463;-71
2022/08/19 06:16:45;;;;;;;5.10;1.48;;;15.10;82.80;;;;;;5064299;28;20025;-72
2022/08/19 06:19:16;;;;;;;5.65;2.22;;;15.10;82.70;;;;;;5066993;28;20070;-72
2022/08/19 06:21:45;;;;;;;1.70;0.95;;;15.10;82.70;;;;;;5066585;28;20048;-71
2022/08/19 06:24:13;;;;;;;8.07;1.42;;;15.10;82.70;;;;;;5062572;28;20104;-71
2022/08/19 06:26:42;;;;;;;13.50;2.88;;;15.20;83.00;;;;;;5065990;28;20020;-70
2022/08/19 06:29:12;;;;;;;5.43;2.13;;;15.20;83.20;;;;;;5068421;28;20534;-72
2022/08/19 06:31:47;;;;;;;8.70;2.25;;;15.20;83.30;;;;;;5064433;28;20032;-71
2022/08/19 06:34:14;;;;;;;13.00;1.38;;;15.20;83.60;;;;;;5064970;28;20024;-72
2022/08/19 06:36:49;;;;;;;7.65;1.63;;;15.20;83.90;;;;;;5064227;28;20025;-72
2022/08/19 06:39:27;;;;;;;9.75;1.40;;;15.30;84.40;;;;;;5067747;28;20500;-69
2022/08/19 06:41:58;;;;;;;8.30;1.75;;;15.30;84.50;;;;;;5062257;28;20036;-71
2022/08/19 06:44:28;;;;;;;18.45;2.15;;;15.30;84.40;;;;;;5062457;28;20523;-71
2022/08/19 06:46:55;;;;;;;4.60;1.40;;;15.30;84.40;;;;;;5064341;28;20029;-70
2022/08/19 06:49:23;;;;;;;5.13;1.40;;;15.30;85.00;;;;;;5065737;28;20467;-72
2022/08/19 06:51:50;;;;;;;6.18;2.00;;;15.30;84.40;;;;;;5062467;28;20039;-71
2022/08/19 06:54:18;;;;;;;11.05;2.47;;;15.30;84.40;;;;;;5060816;28;20020;-71
2022/08/19 06:56:45;;;;;;;5.30;2.00;;;15.40;84.50;;;;;;5065495;28;20020;-72
2022/08/19 06:59:16;;;;;;;4.40;1.60;;;15.40;84.50;;;;;;5062715;28;20562;-71
2022/08/19 07:01:48;;;;;;;8.55;3.30;;;15.30;84.40;;;;;;5064198;28;20348;-71
2022/08/19 07:04:18;;;;;;;10.32;2.35;;;15.40;85.10;;;;;;5066355;28;20032;-72
2022/08/19 07:06:45;;;;;;;7.43;2.30;;;15.40;84.30;;;;;;5060417;28;20021;-71
2022/08/19 07:09:16;;;;;;;9.52;2.20;;;15.40;84.00;;;;;;5067267;28;20059;-71
2022/08/19 07:11:52;;;;;;;8.95;2.13;;;15.40;83.50;;;;;;5065328;28;20322;-71
2022/08/19 07:14:22;;;;;;;11.77;2.75;;;15.40;83.30;;;;;;5066990;28;20020;-71
2022/08/19 07:16:51;;;;;;;13.38;2.05;;;15.50;83.00;;;;;;5061384;28;20025;-72
2022/08/19 07:19:19;;;;;;;6.72;1.63;;;15.50;82.70;;;;;;5068366;28;20104;-70
2022/08/19 07:21:47;;;;;;;6.97;2.25;;;15.50;82.40;;;;;;5070518;28;20041;-69
2022/08/19 07:24:15;;;;;;;10.13;2.10;;;15.50;82.30;;;;;;5068459;28;20036;-71
2022/08/19 07:26:43;;;;;;;3.47;1.92;;;15.50;82.00;;;;;;5066117;28;20033;-70
2022/08/19 07:29:11;;;;;;;5.20;1.58;;;15.50;81.90;;;;;;5070629;28;20058;-73
2022/08/19 07:31:38;;;;;;;7.68;2.65;;;15.60;82.00;;;;;;5065982;28;20045;-74
2022/08/19 07:34:08;;;;;;;8.02;2.63;;;15.60;82.20;;;;;;5067999;28;20024;-73
2022/08/19 07:36:38;;;;;;;4.22;1.27;;;15.60;82.20;;;;;;5068519;28;20031;-73
2022/08/19 07:39:17;;;;;;;3.38;2.10;;;15.60;82.00;;;;;;5071272;28;20029;-74
2022/08/19 07:41:44;;;;;;;7.50;2.05;;;15.60;81.90;;;;;;5066531;28;20020;-73
2022/08/19 07:44:13;;;;;;;7.90;1.55;;;15.60;81.80;;;;;;5068548;28;20086;-70
2022/08/19 07:46:44;;;;;;;6.35;1.85;;;15.70;81.60;;;;;;5067978;28;20074;-74
2022/08/19 07:49:18;;;;;;;4.32;1.05;;;15.70;81.30;;;;;;5069767;28;20048;-68
2022/08/19 07:51:52;;;;;;;6.28;1.30;;;15.60;80.80;;;;;;5069238;28;20078;-74
2022/08/19 07:54:20;;;;;;;11.50;1.85;;;15.70;80.60;;;;;;5064993;28;20055;-70
2022/08/19 07:56:47;;;;;;;4.60;1.48;;;15.70;80.50;;;;;;5066925;28;20028;-72
2022/08/19 07:59:13;;;;;;;12.38;1.88;;;15.70;80.60;;;;;;5065597;28;20062;-73
2022/08/19 08:01:40;;;;;;;4.72;1.98;;;15.70;80.30;;;;;;5066105;28;20468;-74
2022/08/19 08:09:41;;;;;;;4.72;1.52;;;15.80;80.00;;;;;;5069942;28;20090;-77
2022/08/19 08:12:30;;;;;;;4.03;1.20;;;15.80;79.40;;;;;;5066642;28;20021;-73
2022/08/19 08:15:01;;;;;;;8.30;1.98;;;15.90;79.30;;;;;;5067361;28;20064;-71
2022/08/19 08:17:29;;;;;;;4.45;1.55;;;15.80;78.80;;;;;;5066310;28;20479;-72
2022/08/19 08:19:57;;;;;;;9.85;2.03;;;15.80;78.60;;;;;;5064528;28;20497;-68
2022/08/19 08:25:10;;;;;;;;;;;15.90;77.90;;;;;;5070229;28;20115;-70
2022/08/19 08:27:41;;;;;;;3.88;1.23;;;15.90;77.50;;;;;;5067144;28;19913;-70
2022/08/19 08:30:10;;;;;;;17.50;2.90;;;16.00;77.10;;;;;;5066280;28;20030;-70
2022/08/19 08:32:39;;;;;;;7.35;1.48;;;16.10;77.10;;;;;;5068101;28;20100;-70
2022/08/19 08:35:09;;;;;;;8.88;2.40;;;16.10;76.70;;;;;;5066061;28;20031;-68
2022/08/19 08:37:36;;;;;;;5.10;1.90;;;16.10;76.60;;;;;;5063106;28;20028;-70
2022/08/19 08:40:40;;;;;;;10.07;1.67;;;16.20;76.50;;;;;;5069830;28;20032;-69
2022/08/19 08:43:21;;;;;;;10.88;2.10;;;16.20;76.30;;;;;;5065112;28;20027;-71
2022/08/19 08:46:07;;;;;;;10.55;2.20;;;16.20;75.80;;;;;;5067682;28;20428;-69
2022/08/19 08:49:08;;;;;;;15.63;1.48;;;16.20;75.70;;;;;;5063899;28;20075;-72
2022/08/19 08:52:03;;;;;;;12.05;1.60;;;16.20;75.60;;;;;;5065067;28;20040;-72
2022/08/19 08:54:36;;;;;;;9.88;2.20;;;16.30;75.50;;;;;;5067310;28;20032;-72
2022/08/19 08:57:10;;;;;;;14.27;5.32;;;16.20;75.20;;;;;;5067023;28;20033;-70
2022/08/19 08:59:41;;;;;;;12.23;2.78;;;16.20;75.10;;;;;;5067446;28;20480;-69
2022/08/19 09:02:08;;;;;;;8.73;2.60;;;16.20;75.20;;;;;;5065317;28;20024;-71
2022/08/19 09:04:36;;;;;;;17.63;2.65;;;16.20;75.10;;;;;;5063614;28;20025;-70
2022/08/19 09:07:15;;;;;;;7.57;1.95;;;16.20;74.90;;;;;;5064302;28;20122;-69
2022/08/19 09:09:46;;;;;;;6.57;1.17;;;16.20;74.70;;;;;;5069425;28;20093;-69
2022/08/19 09:12:52;;;;;;;5.55;1.42;;;16.10;74.50;;;;;;5066472;28;20025;-69
2022/08/19 09:15:23;;;;;;;;;;;16.20;74.50;;;;;;5066172;28;20111;-68
2022/08/19 09:17:49;;;;;;;6.25;2.17;;;16.10;74.40;;;;;;5067412;28;19916;-70
2022/08/19 09:20:23;;;;;;;6.47;1.50;;;16.20;74.20;;;;;;5063349;28;20051;-69
2022/08/19 09:22:50;;;;;;;11.38;2.20;;;16.20;74.20;;;;;;5064906;28;20054;-70
2022/08/19 09:25:22;;;;;;;11.77;3.28;;;16.20;74.20;;;;;;5062275;28;20019;-72
2022/08/19 09:27:49;;;;;;;8.50;1.83;;;16.20;74.20;;;;;;5064031;28;20025;-68
2022/08/19 09:30:23;;;;;;;17.30;3.13;;;16.20;74.20;;;;;;5066692;28;20091;-68
2022/08/19 09:32:52;;;;;;;5.72;2.75;;;16.20;74.20;;;;;;5065879;28;20107;-69
2022/08/19 09:35:23;;;;;;;6.20;1.80;;;16.20;74.60;;;;;;5066869;28;20566;-70
2022/08/19 09:37:51;;;;;;;8.70;2.83;;;16.30;74.90;;;;;;5063952;28;20025;-72
2022/08/19 09:40:17;;;;;;;5.38;1.33;;;16.30;75.00;;;;;;5066295;28;20093;-68
2022/08/19 09:42:47;;;;;;;4.32;1.58;;;16.30;75.00;;;;;;5063775;28;20425;-71
2022/08/19 09:45:16;;;;;;;7.03;1.42;;;16.40;75.30;;;;;;5066847;28;20122;-72
2022/08/19 09:47:43;;;;;;;7.72;1.90;;;16.40;75.50;;;;;;5065737;28;20028;-72
2022/08/19 09:50:12;;;;;;;5.95;2.28;;;16.40;75.60;;;;;;5066899;28;20495;-69
2022/08/19 09:52:39;;;;;;;10.75;1.17;;;16.40;75.60;;;;;;5067411;28;20357;-71
2022/08/19 09:55:08;;;;;;;4.80;1.75;;;16.40;75.40;;;;;;5065115;28;20023;-71
2022/08/19 09:57:35;;;;;;;7.03;2.00;;;16.50;75.20;;;;;;5059849;28;20017;-69
2022/08/19 10:00:03;;;;;;;5.70;1.23;;;16.50;74.70;;;;;;5064425;28;20052;-67
2022/08/19 10:02:30;;;;;;;8.27;2.03;;;16.50;74.70;;;;;;5065710;28;20025;-73
2022/08/19 10:07:41;;;;;;;4.43;1.37;;;16.50;74.70;;;;;;5061557;28;20680;-73
2022/08/19 10:10:09;;;;;;;6.82;2.20;;;16.60;74.70;;;;;;5066012;28;20020;-71
2022/08/19 10:12:36;;;;;;;6.43;1.73;;;16.60;74.60;;;;;;5065314;28;20054;-69
2022/08/19 10:15:05;;;;;;;5.95;2.72;;;16.60;74.30;;;;;;5065649;28;20379;-68
2022/08/19 10:17:34;;;;;;;12.77;1.67;;;16.60;74.30;;;;;;5064758;28;20154;-67
2022/08/19 10:20:03;;;;;;;6.30;1.95;;;16.60;74.30;;;;;;5068374;28;20032;-69
2022/08/19 10:22:30;;;;;;;4.85;1.65;;;16.60;74.20;;;;;;5061682;28;20110;-68
2022/08/19 10:24:57;;;;;;;4.20;1.67;;;16.60;74.00;;;;;;5066185;28;20024;-69
2022/08/19 10:27:24;;;;;;;4.75;1.42;;;16.60;74.20;;;;;;5066170;28;20115;-69
2022/08/19 10:29:50;;;;;;;5.90;1.33;;;16.70;74.40;;;;;;5064225;28;20025;-73
2022/08/19 10:32:17;;;;;;;8.73;1.50;;;16.70;74.60;;;;;;5062456;28;20021;-69
2022/08/19 10:34:43;;;;;;;10.55;1.60;;;16.70;74.40;;;;;;5065896;28;20401;-70
2022/08/19 10:37:10;;;;;;;4.90;1.88;;;16.70;74.30;;;;;;5066203;28;20499;-70
2022/08/19 10:39:37;;;;;;;6.40;1.95;;;16.70;74.30;;;;;;5065584;28;20877;-69
2022/08/19 10:42:10;;;;;;;10.23;1.83;;;16.80;74.60;;;;;;5064166;28;20025;-70
2022/08/19 10:44:36;;;;;;;7.57;1.35;;;16.80;74.90;;;;;;5063641;28;20025;-67
2022/08/19 10:47:04;;;;;;;5.13;1.58;;;16.80;75.40;;;;;;5064514;28;20021;-67
2022/08/19 10:49:32;;;;;;;18.73;2.30;;;16.80;75.40;;;;;;5067160;28;20368;-68
2022/08/19 10:57:31;;;;;;;19.23;3.78;;;16.80;75.70;;;;;;5062917;28;20101;-68
2022/08/19 10:59:58;;;;;;;5.90;1.75;;;16.80;75.40;;;;;;5068714;28;20028;-68
2022/08/19 11:02:25;;;;;;;13.80;3.08;;;16.70;75.10;;;;;;5067171;28;20036;-72
2022/08/19 11:04:51;;;;;;;8.35;1.77;;;16.70;74.90;;;;;;5066532;28;20103;-68
2022/08/19 11:07:18;;;;;;;6.30;1.80;;;16.70;74.90;;;;;;5068877;28;20029;-68
2022/08/19 11:09:46;;;;;;;7.00;1.67;;;16.70;74.80;;;;;;5069530;28;20483;-68
2022/08/19 11:12:13;;;;;;;4.70;1.40;;;16.70;74.60;;;;;;5070208;28;20027;-68
2022/08/19 11:14:40;;;;;;;7.93;2.03;;;16.60;73.90;;;;;;5068530;28;20536;-68
2022/08/19 11:17:06;;;;;;;6.43;2.13;;;16.60;73.50;;;;;;5065295;28;20413;-68
2022/08/19 11:19:33;;;;;;;3.72;1.40;;;16.60;73.40;;;;;;5071435;28;20029;-68
2022/08/19 11:22:02;;;;;;;7.47;2.88;;;16.50;73.40;;;;;;5070042;28;20710;-70
2022/08/19 11:24:29;;;;;;;5.65;1.65;;;16.50;73.50;;;;;;5065275;28;20025;-68
2022/08/19 11:27:04;;;;;;;6.80;1.92;;;16.50;73.90;;;;;;5061652;28;20123;-68
2022/08/19 11:29:32;;;;;;;6.22;1.85;;;16.40;74.30;;;;;;5072446;28;20029;-67
2022/08/19 11:31:59;;;;;;;3.55;1.40;;;16.40;75.00;;;;;;5065043;28;20044;-68
2022/08/19 11:34:28;;;;;;;5.75;1.20;;;16.40;75.70;;;;;;5067843;28;20028;-68
2022/08/19 11:36:59;;;;;;;4.88;1.45;;;16.40;76.30;;;;;;5065127;28;20028;-67
2022/08/19 11:40:05;;;;;;;9.00;2.28;;;16.40;77.10;;;;;;5070790;28;20015;-68
2022/08/19 11:45:56;;;;;;;5.15;2.63;;;16.50;78.10;;;;;;5069603;28;20028;-68
2022/08/19 11:49:02;;;;;;;16.40;3.50;;;16.50;78.00;;;;;;5065838;28;20519;-67
2022/08/19 11:52:08;;;;;;;10.75;2.75;;;16.60;77.90;;;;;;5071530;28;20479;-68
2022/08/19 11:55:15;;;;;;;9.38;2.58;;;16.60;78.30;;;;;;5064623;28;20051;-68
2022/08/19 11:58:21;;;;;;;9.13;2.85;;;16.70;77.50;;;;;;5063734;28;20473;-68
2022/08/19 12:01:27;;;;;;;7.72;1.13;;;16.70;77.40;;;;;;5066224;28;20020;-68
2022/08/19 12:04:33;;;;;;;6.03;1.67;;;16.80;77.80;;;;;;5062308;28;20016;-68
2022/08/19 12:07:39;;;;;;;10.10;3.28;;;16.80;78.00;;;;;;5063773;28;20013;-68
2022/08/19 12:10:45;;;;;;;8.95;1.23;;;16.80;78.10;;;;;;5067063;28;20507;-68
2022/08/19 12:13:51;;;;;;;6.47;1.35;;;16.80;78.30;;;;;;5066993;28;20056;-68
2022/08/19 12:16:57;;;;;;;8.68;1.77;;;16.90;78.80;;;;;;5066203;28;20422;-68
2022/08/19 12:20:03;;;;;;;9.90;2.00;;;16.90;78.60;;;;;;5064325;28;20107;-68
2022/08/19 12:23:09;;;;;;;7.93;2.55;;;16.90;78.50;;;;;;5065661;28;20518;-68
2022/08/19 12:26:15;;;;;;;14.85;5.07;;;16.90;78.60;;;;;;5063760;28;20510;-68
2022/08/19 12:29:28;;;;;;;10.18;2.22;;;16.80;78.80;;;;;;5065144;28;20024;-69
2022/08/19 12:32:34;;;;;;;6.07;1.52;;;16.90;79.00;;;;;;5063007;28;20487;-68
2022/08/19 12:35:40;;;;;;;10.02;2.03;;;16.80;78.90;;;;;;5064450;28;20021;-68
2022/08/19 12:38:46;;;;;;;2.95;1.20;;;16.80;78.50;;;;;;5068143;28;20021;-68
2022/08/19 12:41:52;;;;;;;5.53;2.78;;;16.80;78.00;;;;;;5065333;28;20051;-68
2022/08/19 12:44:59;;;;;;;6.90;1.40;;;16.80;77.40;;;;;;5064736;28;20172;-70
2022/08/19 12:48:05;;;;;;;4.72;1.90;;;16.80;77.00;;;;;;5066789;28;20026;-68
2022/08/19 12:51:11;;;;;;;5.60;2.90;;;16.80;76.70;;;;;;5065055;28;20115;-68
2022/08/19 12:54:18;;;;;;;6.60;2.75;;;16.80;76.80;;;;;;5064366;28;20025;-70
2022/08/19 12:57:27;;;;;;;6.57;1.30;;;16.80;77.10;;;;;;5067060;28;20108;-69
2022/08/19 13:00:33;;;;;;;4.30;1.85;;;16.70;77.00;;;;;;5065908;28;20036;-67
2022/08/19 13:03:39;;;;;;;8.27;1.73;;;16.70;77.10;;;;;;5066352;28;20032;-68
2022/08/19 13:06:45;;;;;;;6.03;1.35;;;16.70;77.10;;;;;;5063710;28;20078;-68
2022/08/19 13:09:52;;;;;;;2.60;1.02;;;16.60;77.30;;;;;;5069673;28;20025;-67
2022/08/19 13:12:59;;;;;;;8.15;1.13;;;16.60;77.40;;;;;;5066547;28;20040;-68
2022/08/19 13:16:09;;;;;;;8.68;2.13;;;16.60;77.50;;;;;;5061334;28;20077;-67
2022/08/19 13:19:15;;;;;;;4.32;1.35;;;16.60;77.90;;;;;;5063775;28;20024;-69
2022/08/19 13:22:21;;;;;;;4.03;1.88;;;16.50;78.40;;;;;;5060486;28;20045;-68
2022/08/19 13:25:27;;;;;;;8.40;1.80;;;16.50;78.90;;;;;;5067531;28;20020;-68
2022/08/19 13:35:22;;;;;;;5.82;1.75;;;16.50;81.70;;;;;;5067614;28;20044;-68
2022/08/19 13:37:48;;;;;;;4.28;1.60;;;16.40;82.60;;;;;;5061728;28;20021;-69
2022/08/19 13:40:19;;;;;;;9.23;1.25;;;16.40;83.10;;;;;;5070005;28;20025;-69
2022/08/19 13:42:49;;;;;;;10.82;3.03;;;16.40;83.50;;;;;;5068564;28;20029;-70
2022/08/19 13:45:22;;;;;;;11.63;5.78;;;16.40;84.00;;;;;;5069485;28;20020;-66
2022/08/19 13:47:50;;;;;;;10.57;3.80;;;16.40;84.80;;;;;;5066098;28;20032;-68
2022/08/19 13:50:19;;;;;;;5.63;2.10;;;16.40;85.40;;;;;;5063556;28;20090;-68
2022/08/19 13:52:47;;;;;;;4.40;2.22;;;16.40;86.00;;;;;;5065450;28;20033;-71
2022/08/19 13:55:15;;;;;;;5.18;1.77;;;16.40;86.80;;;;;;5061260;28;20484;-67